sensor_id;sensor_type;location;lat;lon;timestamp;temperature;humidity
54168;DHT22;68429;50.958;3.592;2023-05-29T00:00:29;13.50;99.90
54168;DHT22;68429;50.958;3.592;2023-05-29T00:02:54;13.50;99.90
54168;DHT22;68429;50.958;3.592;2023-05-29T00:05:20;13.40;99.90
54168;DHT22;68429;50.958;3.592;2023-05-29T00:07:46;13.40;99.90
54168;DHT22;68429;50.958;3.592;2023-05-29T00:10:12;13.40;99.90
54168;DHT22;68429;50.958;3.592;2023-05-29T00:12:39;13.40;99.90
54168;DHT22;68429;50.958;3.592;2023-05-29T00:15:05;13.40;99.90
54168;DHT22;68429;50.958;3.592;2023-05-29T00:17:31;13.40;99.90
54168;DHT22;68429;50.958;3.592;2023-05-29T00:19:58;13.40;99.90
54168;DHT22;68429;50.958;3.592;2023-05-29T00:22:24;13.30;99.90
54168;DHT22;68429;50.958;3.592;2023-05-29T00:24:51;13.20;99.90
54168;DHT22;68429;50.958;3.592;2023-05-29T00:27:17;13.20;99.90
54168;DHT22;68429;50.958;3.592;2023-05-29T00:29:43;13.20;99.90
54168;DHT22;68429;50.958;3.592;2023-05-29T00:32:09;13.20;99.90
54168;DHT22;68429;50.958;3.592;2023-05-29T00:34:35;13.10;99.90
54168;DHT22;68429;50.958;3.592;2023-05-29T00:37:01;13.10;99.90
54168;DHT22;68429;50.958;3.592;2023-05-29T00:39:27;13.10;99.90
54168;DHT22;68429;50.958;3.592;2023-05-29T00:41:52;13.00;99.90
54168;DHT22;68429;50.958;3.592;2023-05-29T00:44:19;13.00;99.90
54168;DHT22;68429;50.958;3.592;2023-05-29T00:46:49;13.00;99.90
54168;DHT22;68429;50.958;3.592;2023-05-29T00:49:16;13.00;99.90
54168;DHT22;68429;50.958;3.592;2023-05-29T00:51:43;13.00;99.90
54168;DHT22;68429;50.958;3.592;2023-05-29T00:54:11;12.90;99.90
54168;DHT22;68429;50.958;3.592;2023-05-29T00:56:41;12.80;99.90
54168;DHT22;68429;50.958;3.592;2023-05-29T00:59:13;12.80;99.90
54168;DHT22;68429;50.958;3.592;2023-05-29T01:01:39;12.80;99.90
54168;DHT22;68429;50.958;3.592;2023-05-29T01:04:06;12.80;99.90
54168;DHT22;68429;50.958;3.592;2023-05-29T01:06:35;12.80;99.90
54168;DHT22;68429;50.958;3.592;2023-05-29T01:09:01;12.80;99.90
54168;DHT22;68429;50.958;3.592;2023-05-29T01:17:34;12.70;99.90
54168;DHT22;68429;50.958;3.592;2023-05-29T01:25:41;12.70;99.90
54168;DHT22;68429;50.958;3.592;2023-05-29T01:28:13;12.60;99.90
54168;DHT22;68429;50.958;3.592;2023-05-29T01:30:40;12.60;99.90
54168;DHT22;68429;50.958;3.592;2023-05-29T01:33:07;12.70;99.90
54168;DHT22;68429;50.958;3.592;2023-05-29T01:35:32;12.50;99.90
54168;DHT22;68429;50.958;3.592;2023-05-29T01:37:58;12.50;99.90
54168;DHT22;68429;50.958;3.592;2023-05-29T01:40:24;12.40;99.90
54168;DHT22;68429;50.958;3.592;2023-05-29T01:42:50;12.50;99.90
54168;DHT22;68429;50.958;3.592;2023-05-29T01:45:16;12.40;99.90
54168;DHT22;68429;50.958;3.592;2023-05-29T01:47:42;12.40;99.90
54168;DHT22;68429;50.958;3.592;2023-05-29T01:50:09;12.40;99.90
54168;DHT22;68429;50.958;3.592;2023-05-29T01:52:35;12.40;99.90
54168;DHT22;68429;50.958;3.592;2023-05-29T01:55:01;12.40;99.90
54168;DHT22;68429;50.958;3.592;2023-05-29T01:57:26;12.20;99.90
54168;DHT22;68429;50.958;3.592;2023-05-29T01:59:53;12.20;99.90
54168;DHT22;68429;50.958;3.592;2023-05-29T02:02:21;12.20;99.90
54168;DHT22;68429;50.958;3.592;2023-05-29T02:04:48;12.20;99.90
54168;DHT22;68429;50.958;3.592;2023-05-29T02:07:14;12.10;99.90
54168;DHT22;68429;50.958;3.592;2023-05-29T02:09:41;12.10;99.90
54168;DHT22;68429;50.958;3.592;2023-05-29T02:12:06;12.10;99.90
54168;DHT22;68429;50.958;3.592;2023-05-29T02:14:33;12.00;99.90
54168;DHT22;68429;50.958;3.592;2023-05-29T02:16:59;12.10;99.90
54168;DHT22;68429;50.958;3.592;2023-05-29T02:19:26;12.10;99.90
54168;DHT22;68429;50.958;3.592;2023-05-29T02:21:53;12.10;99.90
54168;DHT22;68429;50.958;3.592;2023-05-29T02:24:18;12.00;99.90
54168;DHT22;68429;50.958;3.592;2023-05-29T02:26:45;12.00;99.90
54168;DHT22;68429;50.958;3.592;2023-05-29T02:29:11;12.00;99.90
54168;DHT22;68429;50.958;3.592;2023-05-29T02:31:36;12.00;99.90
54168;DHT22;68429;50.958;3.592;2023-05-29T02:34:02;11.90;99.90
54168;DHT22;68429;50.958;3.592;2023-05-29T02:36:28;11.90;99.90
54168;DHT22;68429;50.958;3.592;2023-05-29T02:38:53;11.90;99.90
54168;DHT22;68429;50.958;3.592;2023-05-29T02:41:19;11.90;99.90
54168;DHT22;68429;50.958;3.592;2023-05-29T02:43:44;11.90;99.90
54168;DHT22;68429;50.958;3.592;2023-05-29T02:46:10;11.80;99.90
54168;DHT22;68429;50.958;3.592;2023-05-29T02:48:36;11.80;99.90
54168;DHT22;68429;50.958;3.592;2023-05-29T02:51:01;11.80;99.90
54168;DHT22;68429;50.958;3.592;2023-05-29T02:53:27;11.70;99.90
54168;DHT22;68429;50.958;3.592;2023-05-29T02:55:52;11.70;99.90
54168;DHT22;68429;50.958;3.592;2023-05-29T02:58:18;11.60;99.90
54168;DHT22;68429;50.958;3.592;2023-05-29T03:00:44;11.70;99.90
54168;DHT22;68429;50.958;3.592;2023-05-29T03:03:10;11.70;99.90
54168;DHT22;68429;50.958;3.592;2023-05-29T03:05:36;11.60;99.90
54168;DHT22;68429;50.958;3.592;2023-05-29T03:08:02;11.50;99.90
54168;DHT22;68429;50.958;3.592;2023-05-29T03:10:28;11.50;99.90
54168;DHT22;68429;50.958;3.592;2023-05-29T03:12:53;11.60;99.90
54168;DHT22;68429;50.958;3.592;2023-05-29T03:15:19;11.50;99.90
54168;DHT22;68429;50.958;3.592;2023-05-29T03:17:46;11.50;99.90
54168;DHT22;68429;50.958;3.592;2023-05-29T03:20:12;11.50;99.90
54168;DHT22;68429;50.958;3.592;2023-05-29T03:22:38;11.50;99.90
54168;DHT22;68429;50.958;3.592;2023-05-29T03:25:04;11.50;99.90
54168;DHT22;68429;50.958;3.592;2023-05-29T03:27:31;11.40;99.90
54168;DHT22;68429;50.958;3.592;2023-05-29T03:29:58;11.40;99.90
54168;DHT22;68429;50.958;3.592;2023-05-29T03:32:24;11.40;99.90
54168;DHT22;68429;50.958;3.592;2023-05-29T03:34:49;11.40;99.90
54168;DHT22;68429;50.958;3.592;2023-05-29T03:37:15;11.40;99.90
54168;DHT22;68429;50.958;3.592;2023-05-29T03:39:41;11.30;99.90
54168;DHT22;68429;50.958;3.592;2023-05-29T03:42:07;11.40;99.90
54168;DHT22;68429;50.958;3.592;2023-05-29T03:44:32;11.40;99.90
54168;DHT22;68429;50.958;3.592;2023-05-29T03:46:58;11.40;99.90
54168;DHT22;68429;50.958;3.592;2023-05-29T03:49:24;11.30;99.90
54168;DHT22;68429;50.958;3.592;2023-05-29T03:51:50;11.20;99.90
54168;DHT22;68429;50.958;3.592;2023-05-29T03:54:16;11.20;99.90
54168;DHT22;68429;50.958;3.592;2023-05-29T03:56:42;11.20;99.90
54168;DHT22;68429;50.958;3.592;2023-05-29T03:59:07;11.20;99.90
54168;DHT22;68429;50.958;3.592;2023-05-29T04:01:33;11.20;99.90
54168;DHT22;68429;50.958;3.592;2023-05-29T04:03:59;11.20;99.90
54168;DHT22;68429;50.958;3.592;2023-05-29T04:06:25;11.20;99.90
54168;DHT22;68429;50.958;3.592;2023-05-29T04:08:51;11.20;99.90
54168;DHT22;68429;50.958;3.592;2023-05-29T04:11:17;11.20;99.90
54168;DHT22;68429;50.958;3.592;2023-05-29T04:13:42;11.10;99.90
54168;DHT22;68429;50.958;3.592;2023-05-29T04:16:08;11.10;99.90
54168;DHT22;68429;50.958;3.592;2023-05-29T04:18:34;11.20;99.90
54168;DHT22;68429;50.958;3.592;2023-05-29T04:20:59;11.20;99.90
54168;DHT22;68429;50.958;3.592;2023-05-29T04:23:26;11.20;99.90
54168;DHT22;68429;50.958;3.592;2023-05-29T04:25:51;11.20;99.90
54168;DHT22;68429;50.958;3.592;2023-05-29T04:28:18;11.10;99.90
54168;DHT22;68429;50.958;3.592;2023-05-29T04:30:47;11.10;99.90
54168;DHT22;68429;50.958;3.592;2023-05-29T04:33:12;11.10;99.90
54168;DHT22;68429;50.958;3.592;2023-05-29T04:35:39;11.10;99.90
54168;DHT22;68429;50.958;3.592;2023-05-29T04:38:09;11.20;99.90
54168;DHT22;68429;50.958;3.592;2023-05-29T04:40:34;11.20;99.90
54168;DHT22;68429;50.958;3.592;2023-05-29T04:43:02;11.20;99.90
54168;DHT22;68429;50.958;3.592;2023-05-29T04:45:30;11.20;99.90
54168;DHT22;68429;50.958;3.592;2023-05-29T04:47:56;11.20;99.90
54168;DHT22;68429;50.958;3.592;2023-05-29T04:50:22;11.20;99.90
54168;DHT22;68429;50.958;3.592;2023-05-29T04:52:51;11.20;99.90
54168;DHT22;68429;50.958;3.592;2023-05-29T04:55:17;11.20;99.90
54168;DHT22;68429;50.958;3.592;2023-05-29T04:57:43;11.30;99.90
54168;DHT22;68429;50.958;3.592;2023-05-29T05:00:09;11.30;99.90
54168;DHT22;68429;50.958;3.592;2023-05-29T05:02:37;11.40;99.90
54168;DHT22;68429;50.958;3.592;2023-05-29T05:05:03;11.40;99.90
54168;DHT22;68429;50.958;3.592;2023-05-29T05:07:29;11.40;99.90
54168;DHT22;68429;50.958;3.592;2023-05-29T05:09:54;11.50;99.90
54168;DHT22;68429;50.958;3.592;2023-05-29T05:12:20;11.60;99.90
54168;DHT22;68429;50.958;3.592;2023-05-29T05:14:46;11.40;99.90
54168;DHT22;68429;50.958;3.592;2023-05-29T05:17:12;11.40;99.90
54168;DHT22;68429;50.958;3.592;2023-05-29T05:19:37;11.50;99.90
54168;DHT22;68429;50.958;3.592;2023-05-29T05:22:03;11.50;99.90
54168;DHT22;68429;50.958;3.592;2023-05-29T05:24:29;11.50;99.90
54168;DHT22;68429;50.958;3.592;2023-05-29T05:26:54;11.50;99.90
54168;DHT22;68429;50.958;3.592;2023-05-29T05:29:20;11.40;99.90
54168;DHT22;68429;50.958;3.592;2023-05-29T05:31:46;11.60;99.90
54168;DHT22;68429;50.958;3.592;2023-05-29T05:34:12;11.50;99.90
54168;DHT22;68429;50.958;3.592;2023-05-29T05:36:37;11.90;99.90
54168;DHT22;68429;50.958;3.592;2023-05-29T05:39:03;12.00;99.90
54168;DHT22;68429;50.958;3.592;2023-05-29T05:41:29;11.80;99.90
54168;DHT22;68429;50.958;3.592;2023-05-29T05:43:55;11.90;99.90
54168;DHT22;68429;50.958;3.592;2023-05-29T05:46:20;11.90;99.90
54168;DHT22;68429;50.958;3.592;2023-05-29T05:48:46;12.10;99.90
54168;DHT22;68429;50.958;3.592;2023-05-29T05:51:11;12.30;99.90
54168;DHT22;68429;50.958;3.592;2023-05-29T05:53:38;12.50;99.90
54168;DHT22;68429;50.958;3.592;2023-05-29T05:56:04;12.60;99.90
54168;DHT22;68429;50.958;3.592;2023-05-29T05:58:30;12.80;99.90
54168;DHT22;68429;50.958;3.592;2023-05-29T06:00:56;12.80;99.90
54168;DHT22;68429;50.958;3.592;2023-05-29T06:03:22;12.60;99.90
54168;DHT22;68429;50.958;3.592;2023-05-29T06:05:48;12.90;99.90
54168;DHT22;68429;50.958;3.592;2023-05-29T06:08:15;12.80;99.90
54168;DHT22;68429;50.958;3.592;2023-05-29T06:10:41;12.80;99.90
54168;DHT22;68429;50.958;3.592;2023-05-29T06:13:07;12.50;99.90
54168;DHT22;68429;50.958;3.592;2023-05-29T06:15:32;12.80;99.90
54168;DHT22;68429;50.958;3.592;2023-05-29T06:17:58;12.60;99.90
54168;DHT22;68429;50.958;3.592;2023-05-29T06:20:24;12.60;99.90
54168;DHT22;68429;50.958;3.592;2023-05-29T06:22:49;12.90;99.90
54168;DHT22;68429;50.958;3.592;2023-05-29T06:25:19;12.90;99.90
54168;DHT22;68429;50.958;3.592;2023-05-29T06:27:45;12.90;99.90
54168;DHT22;68429;50.958;3.592;2023-05-29T06:30:12;12.80;99.90
54168;DHT22;68429;50.958;3.592;2023-05-29T06:32:38;13.20;99.90
54168;DHT22;68429;50.958;3.592;2023-05-29T06:35:03;13.30;99.90
54168;DHT22;68429;50.958;3.592;2023-05-29T06:37:31;13.40;99.90
54168;DHT22;68429;50.958;3.592;2023-05-29T06:39:57;13.60;99.90
54168;DHT22;68429;50.958;3.592;2023-05-29T06:42:23;13.80;99.90
54168;DHT22;68429;50.958;3.592;2023-05-29T06:44:48;13.60;99.90
54168;DHT22;68429;50.958;3.592;2023-05-29T06:47:14;13.50;99.90
54168;DHT22;68429;50.958;3.592;2023-05-29T06:49:39;13.50;99.90
54168;DHT22;68429;50.958;3.592;2023-05-29T06:52:05;13.50;99.90
54168;DHT22;68429;50.958;3.592;2023-05-29T06:54:31;13.50;99.90
54168;DHT22;68429;50.958;3.592;2023-05-29T06:56:57;13.60;99.90
54168;DHT22;68429;50.958;3.592;2023-05-29T06:59:22;13.70;99.90
54168;DHT22;68429;50.958;3.592;2023-05-29T07:01:48;13.50;99.90
54168;DHT22;68429;50.958;3.592;2023-05-29T07:04:14;13.60;99.90
54168;DHT22;68429;50.958;3.592;2023-05-29T07:06:40;14.00;99.90
54168;DHT22;68429;50.958;3.592;2023-05-29T07:09:05;14.10;99.90
54168;DHT22;68429;50.958;3.592;2023-05-29T07:11:31;13.90;99.90
54168;DHT22;68429;50.958;3.592;2023-05-29T07:13:57;14.00;99.90
54168;DHT22;68429;50.958;3.592;2023-05-29T07:16:22;14.30;99.90
54168;DHT22;68429;50.958;3.592;2023-05-29T07:18:48;14.40;99.90
54168;DHT22;68429;50.958;3.592;2023-05-29T07:21:13;14.60;99.90
54168;DHT22;68429;50.958;3.592;2023-05-29T07:23:40;14.60;99.90
54168;DHT22;68429;50.958;3.592;2023-05-29T07:26:05;14.50;99.90
54168;DHT22;68429;50.958;3.592;2023-05-29T07:28:31;14.60;99.90
54168;DHT22;68429;50.958;3.592;2023-05-29T07:30:56;14.90;99.90
54168;DHT22;68429;50.958;3.592;2023-05-29T07:33:22;14.10;99.90
54168;DHT22;68429;50.958;3.592;2023-05-29T07:35:48;14.20;99.90
54168;DHT22;68429;50.958;3.592;2023-05-29T07:38:14;14.10;99.90
54168;DHT22;68429;50.958;3.592;2023-05-29T07:40:39;13.80;99.90
54168;DHT22;68429;50.958;3.592;2023-05-29T07:43:05;14.20;99.90
54168;DHT22;68429;50.958;3.592;2023-05-29T07:45:31;14.50;99.90
54168;DHT22;68429;50.958;3.592;2023-05-29T07:47:56;14.90;99.90
54168;DHT22;68429;50.958;3.592;2023-05-29T07:50:22;14.80;99.90
54168;DHT22;68429;50.958;3.592;2023-05-29T07:52:48;15.00;99.90
54168;DHT22;68429;50.958;3.592;2023-05-29T07:55:14;14.80;99.90
54168;DHT22;68429;50.958;3.592;2023-05-29T07:57:40;14.70;99.90
54168;DHT22;68429;50.958;3.592;2023-05-29T08:00:06;14.80;99.90
54168;DHT22;68429;50.958;3.592;2023-05-29T08:02:33;14.70;99.90
54168;DHT22;68429;50.958;3.592;2023-05-29T08:04:59;14.80;99.90
54168;DHT22;68429;50.958;3.592;2023-05-29T08:07:25;14.60;99.90
54168;DHT22;68429;50.958;3.592;2023-05-29T08:09:52;15.10;99.90
54168;DHT22;68429;50.958;3.592;2023-05-29T08:12:18;15.10;99.90
54168;DHT22;68429;50.958;3.592;2023-05-29T08:14:43;15.60;99.90
54168;DHT22;68429;50.958;3.592;2023-05-29T08:17:09;15.50;99.90
54168;DHT22;68429;50.958;3.592;2023-05-29T08:19:35;15.50;99.90
54168;DHT22;68429;50.958;3.592;2023-05-29T08:22:01;15.50;99.90
54168;DHT22;68429;50.958;3.592;2023-05-29T08:24:27;15.40;99.90
54168;DHT22;68429;50.958;3.592;2023-05-29T08:26:53;15.50;99.90
54168;DHT22;68429;50.958;3.592;2023-05-29T08:29:19;15.50;99.90
54168;DHT22;68429;50.958;3.592;2023-05-29T08:31:45;15.30;99.90
54168;DHT22;68429;50.958;3.592;2023-05-29T08:34:11;15.70;99.90
54168;DHT22;68429;50.958;3.592;2023-05-29T08:36:37;15.70;99.90
54168;DHT22;68429;50.958;3.592;2023-05-29T08:39:02;16.00;99.90
54168;DHT22;68429;50.958;3.592;2023-05-29T08:41:38;15.60;99.90
54168;DHT22;68429;50.958;3.592;2023-05-29T08:44:07;15.70;99.90
54168;DHT22;68429;50.958;3.592;2023-05-29T08:46:39;15.80;99.90
54168;DHT22;68429;50.958;3.592;2023-05-29T08:49:07;15.60;99.90
54168;DHT22;68429;50.958;3.592;2023-05-29T08:51:37;15.80;99.90
54168;DHT22;68429;50.958;3.592;2023-05-29T08:54:09;16.10;99.90
54168;DHT22;68429;50.958;3.592;2023-05-29T08:56:35;16.10;99.90
54168;DHT22;68429;50.958;3.592;2023-05-29T08:59:01;16.10;99.90
54168;DHT22;68429;50.958;3.592;2023-05-29T09:01:28;16.30;99.90
54168;DHT22;68429;50.958;3.592;2023-05-29T09:03:56;16.00;99.90
54168;DHT22;68429;50.958;3.592;2023-05-29T09:06:23;16.30;99.90
54168;DHT22;68429;50.958;3.592;2023-05-29T09:08:51;16.30;99.90
54168;DHT22;68429;50.958;3.592;2023-05-29T09:11:17;16.10;99.90
54168;DHT22;68429;50.958;3.592;2023-05-29T09:13:43;16.10;99.90
54168;DHT22;68429;50.958;3.592;2023-05-29T09:16:09;16.10;99.90
54168;DHT22;68429;50.958;3.592;2023-05-29T09:18:35;16.30;99.90
54168;DHT22;68429;50.958;3.592;2023-05-29T09:21:06;16.20;99.90
54168;DHT22;68429;50.958;3.592;2023-05-29T09:23:35;16.70;99.90
54168;DHT22;68429;50.958;3.592;2023-05-29T09:26:02;16.90;99.90
54168;DHT22;68429;50.958;3.592;2023-05-29T09:28:30;16.70;99.90
54168;DHT22;68429;50.958;3.592;2023-05-29T09:30:56;16.70;99.90
54168;DHT22;68429;50.958;3.592;2023-05-29T09:33:22;16.80;99.90
54168;DHT22;68429;50.958;3.592;2023-05-29T09:35:49;16.60;99.90
54168;DHT22;68429;50.958;3.592;2023-05-29T09:38:19;16.80;99.90
54168;DHT22;68429;50.958;3.592;2023-05-29T09:40:45;16.70;99.90
54168;DHT22;68429;50.958;3.592;2023-05-29T09:43:13;16.90;99.90
54168;DHT22;68429;50.958;3.592;2023-05-29T09:45:43;17.00;99.90
54168;DHT22;68429;50.958;3.592;2023-05-29T09:48:17;16.80;99.90
54168;DHT22;68429;50.958;3.592;2023-05-29T09:50:44;16.80;99.90
54168;DHT22;68429;50.958;3.592;2023-05-29T09:53:25;17.20;99.90
54168;DHT22;68429;50.958;3.592;2023-05-29T09:55:56;17.50;99.90
54168;DHT22;68429;50.958;3.592;2023-05-29T09:58:22;17.70;99.90
54168;DHT22;68429;50.958;3.592;2023-05-29T10:00:49;18.00;99.90
54168;DHT22;68429;50.958;3.592;2023-05-29T10:03:17;18.50;99.60
54168;DHT22;68429;50.958;3.592;2023-05-29T10:05:46;17.80;99.50
54168;DHT22;68429;50.958;3.592;2023-05-29T10:08:14;17.90;99.70
54168;DHT22;68429;50.958;3.592;2023-05-29T10:10:43;17.90;99.40
54168;DHT22;68429;50.958;3.592;2023-05-29T10:13:13;18.30;99.00
54168;DHT22;68429;50.958;3.592;2023-05-29T10:15:46;18.40;98.80
54168;DHT22;68429;50.958;3.592;2023-05-29T10:18:31;18.20;98.60
54168;DHT22;68429;50.958;3.592;2023-05-29T10:20:57;17.90;99.90
54168;DHT22;68429;50.958;3.592;2023-05-29T10:23:25;18.50;98.80
54168;DHT22;68429;50.958;3.592;2023-05-29T10:25:53;18.60;98.30
54168;DHT22;68429;50.958;3.592;2023-05-29T10:28:20;18.60;98.50
54168;DHT22;68429;50.958;3.592;2023-05-29T10:38:31;19.00;98.20
54168;DHT22;68429;50.958;3.592;2023-05-29T10:43:57;19.50;96.90
54168;DHT22;68429;50.958;3.592;2023-05-29T10:49:16;20.00;96.20
54168;DHT22;68429;50.958;3.592;2023-05-29T10:51:42;19.80;96.10
54168;DHT22;68429;50.958;3.592;2023-05-29T10:54:08;20.00;95.80
54168;DHT22;68429;50.958;3.592;2023-05-29T10:56:35;20.50;95.60
54168;DHT22;68429;50.958;3.592;2023-05-29T10:59:01;20.40;95.30
54168;DHT22;68429;50.958;3.592;2023-05-29T11:01:28;19.90;95.80
54168;DHT22;68429;50.958;3.592;2023-05-29T11:06:42;19.30;96.30
54168;DHT22;68429;50.958;3.592;2023-05-29T11:14:59;20.60;94.70
54168;DHT22;68429;50.958;3.592;2023-05-29T11:20:00;21.10;94.40
54168;DHT22;68429;50.958;3.592;2023-05-29T11:22:32;21.00;94.20
54168;DHT22;68429;50.958;3.592;2023-05-29T11:25:00;21.00;94.10
54168;DHT22;68429;50.958;3.592;2023-05-29T11:27:26;19.90;95.00
54168;DHT22;68429;50.958;3.592;2023-05-29T11:29:52;21.10;94.70
54168;DHT22;68429;50.958;3.592;2023-05-29T11:32:21;21.40;93.60
54168;DHT22;68429;50.958;3.592;2023-05-29T11:34:52;20.90;94.30
54168;DHT22;68429;50.958;3.592;2023-05-29T11:37:19;20.90;94.00
54168;DHT22;68429;50.958;3.592;2023-05-29T11:39:45;22.00;93.40
54168;DHT22;68429;50.958;3.592;2023-05-29T11:42:11;22.60;92.60
54168;DHT22;68429;50.958;3.592;2023-05-29T11:44:37;22.00;92.90
54168;DHT22;68429;50.958;3.592;2023-05-29T11:47:04;22.00;92.90
54168;DHT22;68429;50.958;3.592;2023-05-29T11:49:35;21.70;93.40
54168;DHT22;68429;50.958;3.592;2023-05-29T11:52:08;20.70;94.10
54168;DHT22;68429;50.958;3.592;2023-05-29T11:54:34;21.00;93.90
54168;DHT22;68429;50.958;3.592;2023-05-29T11:57:01;21.20;94.00
54168;DHT22;68429;50.958;3.592;2023-05-29T11:59:34;20.30;94.20
54168;DHT22;68429;50.958;3.592;2023-05-29T12:02:03;20.50;95.40
54168;DHT22;68429;50.958;3.592;2023-05-29T12:04:29;21.70;93.70
54168;DHT22;68429;50.958;3.592;2023-05-29T12:06:55;21.60;93.10
54168;DHT22;68429;50.958;3.592;2023-05-29T12:09:28;21.70;92.80
54168;DHT22;68429;50.958;3.592;2023-05-29T12:12:03;21.00;93.60
54168;DHT22;68429;50.958;3.592;2023-05-29T12:14:30;21.30;94.00
54168;DHT22;68429;50.958;3.592;2023-05-29T12:16:56;20.80;94.30
54168;DHT22;68429;50.958;3.592;2023-05-29T12:19:21;21.30;93.10
54168;DHT22;68429;50.958;3.592;2023-05-29T12:21:47;21.60;93.20
54168;DHT22;68429;50.958;3.592;2023-05-29T12:24:13;21.40;93.10
54168;DHT22;68429;50.958;3.592;2023-05-29T12:26:39;21.80;93.00
54168;DHT22;68429;50.958;3.592;2023-05-29T12:29:05;22.20;93.00
54168;DHT22;68429;50.958;3.592;2023-05-29T12:31:32;22.30;92.90
54168;DHT22;68429;50.958;3.592;2023-05-29T12:34:16;21.70;92.70
54168;DHT22;68429;50.958;3.592;2023-05-29T12:36:43;21.10;93.30
54168;DHT22;68429;50.958;3.592;2023-05-29T12:39:09;20.30;94.10
54168;DHT22;68429;50.958;3.592;2023-05-29T12:41:36;20.20;93.90
54168;DHT22;68429;50.958;3.592;2023-05-29T12:44:04;20.70;94.30
54168;DHT22;68429;50.958;3.592;2023-05-29T12:46:41;21.60;93.40
54168;DHT22;68429;50.958;3.592;2023-05-29T12:49:17;22.20;93.70
54168;DHT22;68429;50.958;3.592;2023-05-29T12:51:46;22.00;92.70
54168;DHT22;68429;50.958;3.592;2023-05-29T12:54:15;22.20;92.80
54168;DHT22;68429;50.958;3.592;2023-05-29T12:56:42;21.70;93.20
54168;DHT22;68429;50.958;3.592;2023-05-29T12:59:10;22.20;93.30
54168;DHT22;68429;50.958;3.592;2023-05-29T13:01:37;21.60;93.10
54168;DHT22;68429;50.958;3.592;2023-05-29T13:04:06;22.00;93.20
54168;DHT22;68429;50.958;3.592;2023-05-29T13:06:37;21.40;93.50
54168;DHT22;68429;50.958;3.592;2023-05-29T13:09:03;21.80;93.70
54168;DHT22;68429;50.958;3.592;2023-05-29T13:11:28;21.90;92.60
54168;DHT22;68429;50.958;3.592;2023-05-29T13:13:54;21.90;93.20
54168;DHT22;68429;50.958;3.592;2023-05-29T13:16:20;22.00;92.40
54168;DHT22;68429;50.958;3.592;2023-05-29T13:18:45;22.50;92.20
54168;DHT22;68429;50.958;3.592;2023-05-29T13:21:11;22.50;91.70
54168;DHT22;68429;50.958;3.592;2023-05-29T13:23:37;21.40;92.70
54168;DHT22;68429;50.958;3.592;2023-05-29T13:26:06;21.00;92.70
54168;DHT22;68429;50.958;3.592;2023-05-29T13:28:32;20.70;93.50
54168;DHT22;68429;50.958;3.592;2023-05-29T13:30:59;20.90;93.50
54168;DHT22;68429;50.958;3.592;2023-05-29T13:33:25;21.00;93.30
54168;DHT22;68429;50.958;3.592;2023-05-29T13:35:51;21.70;92.90
54168;DHT22;68429;50.958;3.592;2023-05-29T13:38:16;21.90;92.10
54168;DHT22;68429;50.958;3.592;2023-05-29T13:40:42;22.50;91.80
54168;DHT22;68429;50.958;3.592;2023-05-29T13:43:08;21.40;92.20
54168;DHT22;68429;50.958;3.592;2023-05-29T13:45:33;20.50;92.90
54168;DHT22;68429;50.958;3.592;2023-05-29T13:47:59;20.70;93.70
54168;DHT22;68429;50.958;3.592;2023-05-29T13:50:25;21.10;93.30
54168;DHT22;68429;50.958;3.592;2023-05-29T13:52:51;22.10;92.30
54168;DHT22;68429;50.958;3.592;2023-05-29T13:55:16;21.70;92.00
54168;DHT22;68429;50.958;3.592;2023-05-29T13:57:42;21.50;92.20
54168;DHT22;68429;50.958;3.592;2023-05-29T14:00:10;21.60;92.10
54168;DHT22;68429;50.958;3.592;2023-05-29T14:02:36;21.40;91.70
54168;DHT22;68429;50.958;3.592;2023-05-29T14:05:02;21.00;92.20
54168;DHT22;68429;50.958;3.592;2023-05-29T14:07:28;20.90;92.40
54168;DHT22;68429;50.958;3.592;2023-05-29T14:09:54;20.70;92.40
54168;DHT22;68429;50.958;3.592;2023-05-29T14:12:20;20.80;92.50
54168;DHT22;68429;50.958;3.592;2023-05-29T14:14:46;21.10;91.40
54168;DHT22;68429;50.958;3.592;2023-05-29T14:17:11;20.80;92.10
54168;DHT22;68429;50.958;3.592;2023-05-29T14:19:38;20.80;91.60
54168;DHT22;68429;50.958;3.592;2023-05-29T14:22:03;21.10;91.10
54168;DHT22;68429;50.958;3.592;2023-05-29T14:24:29;21.40;90.60
54168;DHT22;68429;50.958;3.592;2023-05-29T14:26:55;21.30;90.60
54168;DHT22;68429;50.958;3.592;2023-05-29T14:29:21;20.60;91.50
54168;DHT22;68429;50.958;3.592;2023-05-29T14:31:46;20.80;90.90
54168;DHT22;68429;50.958;3.592;2023-05-29T14:34:12;20.90;90.20
54168;DHT22;68429;50.958;3.592;2023-05-29T14:36:39;20.70;90.50
54168;DHT22;68429;50.958;3.592;2023-05-29T14:39:05;20.70;90.60
54168;DHT22;68429;50.958;3.592;2023-05-29T14:41:31;20.60;90.50
54168;DHT22;68429;50.958;3.592;2023-05-29T14:43:58;20.20;91.30
54168;DHT22;68429;50.958;3.592;2023-05-29T14:46:25;20.60;90.70
54168;DHT22;68429;50.958;3.592;2023-05-29T14:48:51;20.70;90.80
54168;DHT22;68429;50.958;3.592;2023-05-29T14:51:17;20.50;91.20
54168;DHT22;68429;50.958;3.592;2023-05-29T14:53:44;20.60;91.50
54168;DHT22;68429;50.958;3.592;2023-05-29T14:56:10;20.80;92.10
54168;DHT22;68429;50.958;3.592;2023-05-29T14:58:35;21.10;91.90
54168;DHT22;68429;50.958;3.592;2023-05-29T15:01:01;20.70;91.80
54168;DHT22;68429;50.958;3.592;2023-05-29T15:03:27;21.10;91.70
54168;DHT22;68429;50.958;3.592;2023-05-29T15:05:54;21.40;91.40
54168;DHT22;68429;50.958;3.592;2023-05-29T15:08:20;20.20;92.10
54168;DHT22;68429;50.958;3.592;2023-05-29T15:10:45;20.30;92.60
54168;DHT22;68429;50.958;3.592;2023-05-29T15:13:11;20.30;92.20
54168;DHT22;68429;50.958;3.592;2023-05-29T15:15:37;20.30;92.80
54168;DHT22;68429;50.958;3.592;2023-05-29T15:18:02;20.00;92.90
54168;DHT22;68429;50.958;3.592;2023-05-29T15:20:28;20.00;92.90
54168;DHT22;68429;50.958;3.592;2023-05-29T15:22:54;19.60;93.30
54168;DHT22;68429;50.958;3.592;2023-05-29T15:25:21;19.90;93.10
54168;DHT22;68429;50.958;3.592;2023-05-29T15:27:47;19.80;93.30
54168;DHT22;68429;50.958;3.592;2023-05-29T15:30:17;19.90;93.60
54168;DHT22;68429;50.958;3.592;2023-05-29T15:32:46;20.10;93.30
54168;DHT22;68429;50.958;3.592;2023-05-29T15:35:13;20.10;93.80
54168;DHT22;68429;50.958;3.592;2023-05-29T15:37:40;20.20;93.30
54168;DHT22;68429;50.958;3.592;2023-05-29T15:40:07;19.90;93.30
54168;DHT22;68429;50.958;3.592;2023-05-29T15:42:34;19.80;93.20
54168;DHT22;68429;50.958;3.592;2023-05-29T15:45:01;19.50;93.60
54168;DHT22;68429;50.958;3.592;2023-05-29T15:47:29;19.30;93.60
54168;DHT22;68429;50.958;3.592;2023-05-29T15:49:55;19.30;94.20
54168;DHT22;68429;50.958;3.592;2023-05-29T15:52:21;19.40;93.70
54168;DHT22;68429;50.958;3.592;2023-05-29T15:54:46;19.10;93.90
54168;DHT22;68429;50.958;3.592;2023-05-29T15:57:12;18.90;94.70
54168;DHT22;68429;50.958;3.592;2023-05-29T15:59:38;19.00;94.60
54168;DHT22;68429;50.958;3.592;2023-05-29T16:02:04;18.90;94.90